• Join FlightAware (Why Join?)
  • Login
  • US Flag 
04:51PM EDT


 

Airport Tracker/Info


-or-


 

Live Flight TrackerFlight Track Log ✈ N40BZ ✈ 23-Jul-2013 ✈ KBUF - KFOK

Flight Track Log - Related Links

Times and Time Zones

All times are in EDT time to prevent confusion due to time zone crossing. See the N40BZ flight status page for this flight to view local times or setup timezone preferences in your user account.

Time Position Orientation Groundspeed Altitude Reporting Facility
EDT Latitude Longitude Course Direction KTS MPH feet Rate Location/Type
03:01PM 42.9167 -78.7500 160° South 99 114 1,300  Level Buffalo TRACON
03:02PM 42.8833 -78.7333 160° South 131 151 2,300 900 Climbing Buffalo TRACON
03:03PM 42.8500 -78.7000 144° Southeast 130 150 3,200 840 Climbing Buffalo TRACON
03:04PM 42.8300 -78.6722 134° Southeast 153 176 4,100 840 Climbing Cleveland Center
03:05PM 42.8167 -78.6275 112° Southeast 157 181 5,000 900 Climbing Cleveland Center
03:06PM 42.7989 -78.5658 111° Southeast 157 181 6,000 900 Climbing Cleveland Center
03:07PM 42.7814 -78.5125 114° Southeast 152 175 6,800 840 Climbing Cleveland Center
03:08PM 42.7636 -78.4564 113° Southeast 152 175 7,700 900 Climbing Cleveland Center
03:09PM 42.7522 -78.4033 106° East 152 175 8,600 840 Climbing Cleveland Center
03:10PM 42.7325 -78.3503 117° Southeast 152 175 9,400 1,200 Climbing Cleveland Center
03:11PM 42.7147 -78.2886 111° Southeast 152 175 11,000 840 Climbing Cleveland Center
03:12PM 42.7011 -78.2325 108° East 157 181 11,100  Climbing Cleveland Center
03:13PM 42.6808 -78.1683 113° Southeast 165 190 11,100  Level Cleveland Center
03:14PM 42.6606 -78.0986 112° Southeast 185 213 11,100  Level Cleveland Center
03:15PM 42.6383 -78.0261 113° Southeast 195 224 11,100  Level Cleveland Center
03:16PM 42.6158 -77.9536 113° Southeast 200 230 11,100  Level Cleveland Center
03:17PM 42.5953 -77.8783 110° East 205 236 11,100 -120 Level Cleveland Center
03:18PM 42.5706 -77.8003 113° Southeast 211 243 10,900 -120 Descending Cleveland Center
03:19PM 42.5478 -77.7281 113° Southeast 211 243 10,900  Level Cleveland Center
03:20PM 42.5275 -77.6614 112° Southeast 206 237 10,900 60 Level Cleveland Center
03:22PM 42.4939 -77.5558 113° Southeast 209 241 11,100 60 Climbing New York Center
03:23PM 42.4819 -77.4731 101° East 198 228 11,100 -60 Level New York Center
03:24PM 42.4756 -77.3994 97° East 198 228 11,000 -60 Descending New York Center
03:25PM 42.4608 -77.3247 105° East 198 228 11,000  Level New York Center
03:26PM 42.4483 -77.2506 103° East 198 228 11,000  Level New York Center
03:27PM 42.4336 -77.1786 105° East 203 234 11,000  Level New York Center
03:28PM 42.4208 -77.1044 103° East 203 234 11,000  Level New York Center
03:29PM 42.4058 -77.0328 106° East 203 234 11,000  Level New York Center
03:30PM 42.3931 -76.9586 103° East 203 234 11,000  Level New York Center
03:31PM 42.3781 -76.8842 105° East 208 239 11,000  Level New York Center
03:32PM 42.3633 -76.8097 105° East 208 239 11,000  Level New York Center
03:33PM 42.3503 -76.7356 103° East 208 239 11,000  Level New York Center
03:34PM 42.3353 -76.6642 106° East 208 239 11,000  Level New York Center
03:35PM 42.3222 -76.5900 103° East 208 239 11,000  Level New York Center
03:36PM 42.3072 -76.5131 105° East 208 239 11,000  Level New York Center
03:37PM 42.2897 -76.4414 108° East 208 239 11,000  Level New York Center
03:38PM 42.2767 -76.3675 103° East 208 239 11,000  Level New York Center
03:39PM 42.2614 -76.2906 105° East 208 239 11,000  Level New York Center
03:40PM 42.2439 -76.2189 108° East 208 239 11,100 360 Climbing New York Center
03:41PM 42.2325 -76.1481 102° East 208 239 11,800 660 Climbing New York Center
03:42PM 42.2167 -76.0822 108° East 196 226 12,500 720 Climbing New York Center
03:43PM 42.2086 -76.0169 99° East 184 212 13,300 720 Climbing Boston Center
03:44PM 42.1981 -75.9519 102° East 179 206 14,000 720 Climbing Boston Center
03:45PM 42.1833 -75.8867 107° East 179 206 14,800 420 Climbing Boston Center
03:46PM 42.1686 -75.8186 106° East 184 212 14,900  Climbing Boston Center
03:47PM 42.1522 -75.7392 106° East 196 226 14,900  Level Boston Center
03:48PM 42.1358 -75.6600 106° East 212 244 14,900  Level Boston Center
03:49PM 42.1172 -75.5778 107° East 212 244 14,900 300 Level Boston Center
03:50PM 42.1028 -75.5014 104° East 212 244 15,600 780 Climbing Boston Center
03:51PM 42.0897 -75.4367 105° East 193 222 16,500 600 Climbing Boston Center
03:52PM 42.0772 -75.3661 103° East 187 215 16,900 180 Climbing Boston Center
03:53PM 42.0603 -75.2897 107° East 193 222 16,900  Level Boston Center
03:54PM 42.0706 -75.2089 80° East 204 235 16,900  Level Boston Center
03:55PM 42.0786 -75.1311 82° East 220 253 16,900  Level Boston Center
03:56PM 42.0889 -75.0531 80° East 220 253 16,900  Level Boston Center
03:57PM 42.0969 -74.9694 83° East 220 253 16,900  Level Boston Center
03:58PM 42.1050 -74.8886 82° East 220 253 16,900  Level Boston Center
03:59PM 42.1153 -74.8078 80° East 220 253 16,900  Level Boston Center
04:00PM 42.1211 -74.7242 85° East 220 253 16,900  Level Boston Center
04:01PM 42.1308 -74.6461 80° East 220 253 16,900  Level Boston Center
04:02PM 42.1389 -74.5625 83° East 220 253 16,900  Level Boston Center
04:03PM 42.1464 -74.4842 83° East 215 247 16,900  Level Boston Center
04:04PM 42.1542 -74.4006 83° East 225 259 17,000  Climbing Boston Center
04:05PM 42.1642 -74.3111 81° East 225 259 17,000  Level Boston Center
04:06PM 42.1694 -74.2386 84° East 220 253 17,000  Level Boston Center
04:07PM 42.1811 -74.1492 80° East 220 253 17,000  Level Boston Center
04:08PM 42.1867 -74.0653 85° East 220 253 17,000  Level Boston Center
04:09PM 42.1814 -73.9922 96° East 214 246 17,000  Level Boston Center
04:11PM 42.1522 -73.8292 104° East 220 253 17,000 -120 Level Boston Center
04:12PM 42.1367 -73.7447 104° East 220 253 16,800 -660 Descending Boston Center
04:13PM 42.1058 -73.6939 129° Southeast 209 241 15,700 -960 Descending Boston Center
04:14PM 42.0503 -73.6367 143° Southeast 214 246 14,900 -1,380 Descending Boston Center
04:15PM 42.0042 -73.6497 192° South 175 201 13,000 -960 Descending Boston Center
04:16PM 41.9578 -73.6936 215° Southwest 181 208 13,000  Level Boston Center
04:17PM 41.9269 -73.6733 154° Southeast 142 163 13,100 -360 Climbing Boston Center
04:18PM 41.9256 -73.5925 91° East 115 132 12,300 -840 Descending Boston Center
04:19PM 41.9347 -73.5228 80° East 189 217 11,500 -660 Descending Boston Center
04:20PM 41.9481 -73.4367 78° East 214 246 11,000 -300 Descending Boston Center
04:21PM 41.9631 -73.3586 75° East 219 252 11,000  Level Boston Center
04:22PM 41.9783 -73.2889 74° East 214 246 11,000  Level Boston Center
04:23PM 41.9936 -73.2083 76° East 204 235 11,000  Level Boston Center
04:24PM 42.0106 -73.1414 71° East 199 229 11,000  Level Boston Center
04:25PM 42.0361 -73.0633 66° East 205 236 11,000  Level Boston Center
04:26PM 42.0592 -73.0050 62° Northeast 205 236 11,000  Level Boston Center
04:27PM 42.0867 -72.9325 63° Northeast 200 230 11,000  Level Boston Center
04:28PM 42.1078 -72.8739 64° Northeast 195 224 11,100  Climbing Boston Center
04:29PM 42.1331 -72.8011 65° Northeast 195 224 11,100 -60 Level Boston Center
04:30PM 42.1519 -72.7342 69° East 195 224 11,000  Descending Boston Center
04:31PM 42.1189 -72.6753 127° Southeast 185 213 11,100  Climbing Boston Center
04:32PM 42.0750 -72.6219 138° Southeast 191 220 11,100 -60 Level Boston Center
04:33PM 42.0356 -72.5797 142° Southeast 198 228 11,000 -60 Descending Boston Center
04:34PM 41.9897 -72.5267 139° Southeast 198 228 11,000  Level Boston Center
04:35PM 41.9564 -72.4819 135° Southeast 198 228 11,000  Level Boston Center
04:36PM 41.9106 -72.4289 139° Southeast 198 228 11,100  Climbing Boston Center
04:36PM 41.8794 -72.3956 141° Southeast 195 224 11,000 -120 Descending Boston Center
04:37PM 41.8522 -72.3703 145° Southeast 194 223 11,000  Level Boston Center
04:38PM 41.8211 -72.3481 152° Southeast 198 228 11,000 60 Level Boston Center
04:38PM 41.8000 -72.3258 142° Southeast 194 223 11,100  Climbing Boston Center
04:39PM 41.7522 -72.2925 153° Southeast 173 199 11,000  Descending Boston Center
04:40PM 41.7083 -72.2761 164° South 185 213 11,100  Climbing Boston Center
04:41PM 41.6625 -72.2539 160° South 184 212 11,000  Descending Boston Center
04:42PM 41.6125 -72.2764 199° South 168 193 11,100 60 Climbing Boston Center